sensor_id;sensor_type;location;lat;lon;timestamp;temperature;humidity
80279;DHT22;70683;52.492;13.416;2023-12-14T00:00:37;6.90;96.60
80279;DHT22;70683;52.492;13.416;2023-12-14T00:03:03;6.80;96.20
80279;DHT22;70683;52.492;13.416;2023-12-14T00:05:30;6.80;96.30
80279;DHT22;70683;52.492;13.416;2023-12-14T00:07:56;6.70;96.30
80279;DHT22;70683;52.492;13.416;2023-12-14T00:10:23;6.70;96.50
80279;DHT22;70683;52.492;13.416;2023-12-14T00:12:50;6.70;96.70
80279;DHT22;70683;52.492;13.416;2023-12-14T00:15:18;6.70;96.60
80279;DHT22;70683;52.492;13.416;2023-12-14T00:17:45;6.60;96.60
80279;DHT22;70683;52.492;13.416;2023-12-14T00:20:12;6.60;96.70
80279;DHT22;70683;52.492;13.416;2023-12-14T00:22:39;6.70;96.80
80279;DHT22;70683;52.492;13.416;2023-12-14T00:25:07;6.70;96.70
80279;DHT22;70683;52.492;13.416;2023-12-14T00:27:33;6.80;96.60
80279;DHT22;70683;52.492;13.416;2023-12-14T00:30:00;6.80;96.70
80279;DHT22;70683;52.492;13.416;2023-12-14T00:32:27;6.80;96.40
80279;DHT22;70683;52.492;13.416;2023-12-14T00:34:53;6.80;96.30
80279;DHT22;70683;52.492;13.416;2023-12-14T00:37:20;6.80;96.40
80279;DHT22;70683;52.492;13.416;2023-12-14T00:39:46;6.80;96.40
80279;DHT22;70683;52.492;13.416;2023-12-14T00:42:13;6.70;96.00
80279;DHT22;70683;52.492;13.416;2023-12-14T00:44:39;6.60;96.20
80279;DHT22;70683;52.492;13.416;2023-12-14T00:47:06;6.60;96.30
80279;DHT22;70683;52.492;13.416;2023-12-14T00:49:33;6.70;96.50
80279;DHT22;70683;52.492;13.416;2023-12-14T00:51:59;6.70;96.30
80279;DHT22;70683;52.492;13.416;2023-12-14T00:54:26;6.70;96.40
80279;DHT22;70683;52.492;13.416;2023-12-14T00:56:52;6.70;96.40
80279;DHT22;70683;52.492;13.416;2023-12-14T00:59:19;6.60;95.60
80279;DHT22;70683;52.492;13.416;2023-12-14T01:01:45;6.50;96.00
80279;DHT22;70683;52.492;13.416;2023-12-14T01:04:13;6.50;96.10
80279;DHT22;70683;52.492;13.416;2023-12-14T01:06:39;6.60;96.30
80279;DHT22;70683;52.492;13.416;2023-12-14T01:09:06;6.50;95.90
80279;DHT22;70683;52.492;13.416;2023-12-14T01:11:34;6.50;96.10
80279;DHT22;70683;52.492;13.416;2023-12-14T01:14:00;6.40;96.20
80279;DHT22;70683;52.492;13.416;2023-12-14T01:16:27;6.50;96.40
80279;DHT22;70683;52.492;13.416;2023-12-14T01:18:53;6.50;96.50
80279;DHT22;70683;52.492;13.416;2023-12-14T01:21:20;6.50;95.60
80279;DHT22;70683;52.492;13.416;2023-12-14T01:23:47;6.30;96.10
80279;DHT22;70683;52.492;13.416;2023-12-14T01:26:15;6.40;96.40
80279;DHT22;70683;52.492;13.416;2023-12-14T01:28:41;6.40;96.50
80279;DHT22;70683;52.492;13.416;2023-12-14T01:31:08;6.40;96.20
80279;DHT22;70683;52.492;13.416;2023-12-14T01:33:34;6.40;96.20
80279;DHT22;70683;52.492;13.416;2023-12-14T01:36:01;6.40;96.20
80279;DHT22;70683;52.492;13.416;2023-12-14T01:38:28;6.40;96.20
80279;DHT22;70683;52.492;13.416;2023-12-14T01:40:54;6.40;96.30
80279;DHT22;70683;52.492;13.416;2023-12-14T01:43:22;6.30;96.10
80279;DHT22;70683;52.492;13.416;2023-12-14T01:45:49;6.20;96.30
80279;DHT22;70683;52.492;13.416;2023-12-14T01:48:15;6.20;96.60
80279;DHT22;70683;52.492;13.416;2023-12-14T01:50:42;6.20;96.60
80279;DHT22;70683;52.492;13.416;2023-12-14T01:53:08;6.00;96.30
80279;DHT22;70683;52.492;13.416;2023-12-14T01:55:35;6.10;96.70
80279;DHT22;70683;52.492;13.416;2023-12-14T01:58:02;6.10;96.80
80279;DHT22;70683;52.492;13.416;2023-12-14T02:00:34;6.20;96.70
80279;DHT22;70683;52.492;13.416;2023-12-14T02:02:59;6.20;96.60
80279;DHT22;70683;52.492;13.416;2023-12-14T02:05:26;6.10;96.30
80279;DHT22;70683;52.492;13.416;2023-12-14T02:07:52;6.00;96.10
80279;DHT22;70683;52.492;13.416;2023-12-14T02:10:20;6.00;96.50
80279;DHT22;70683;52.492;13.416;2023-12-14T02:12:47;6.00;96.20
80279;DHT22;70683;52.492;13.416;2023-12-14T02:15:13;6.00;96.20
80279;DHT22;70683;52.492;13.416;2023-12-14T02:17:40;6.00;96.20
80279;DHT22;70683;52.492;13.416;2023-12-14T02:20:07;6.00;96.30
80279;DHT22;70683;52.492;13.416;2023-12-14T02:25:10;6.10;96.40
80279;DHT22;70683;52.492;13.416;2023-12-14T02:27:37;6.10;96.30
80279;DHT22;70683;52.492;13.416;2023-12-14T02:30:06;6.10;96.10
80279;DHT22;70683;52.492;13.416;2023-12-14T02:32:33;6.10;95.80
80279;DHT22;70683;52.492;13.416;2023-12-14T02:34:59;6.00;95.40
80279;DHT22;70683;52.492;13.416;2023-12-14T02:37:26;6.00;95.90
80279;DHT22;70683;52.492;13.416;2023-12-14T02:39:53;5.90;95.50
80279;DHT22;70683;52.492;13.416;2023-12-14T02:42:22;5.80;96.00
80279;DHT22;70683;52.492;13.416;2023-12-14T02:44:49;5.80;96.50
80279;DHT22;70683;52.492;13.416;2023-12-14T02:47:16;5.80;96.50
80279;DHT22;70683;52.492;13.416;2023-12-14T02:49:44;5.80;96.60
80279;DHT22;70683;52.492;13.416;2023-12-14T02:52:10;5.80;96.50
80279;DHT22;70683;52.492;13.416;2023-12-14T02:54:38;5.80;96.60
80279;DHT22;70683;52.492;13.416;2023-12-14T02:57:06;5.80;96.60
80279;DHT22;70683;52.492;13.416;2023-12-14T02:59:33;5.80;96.70
80279;DHT22;70683;52.492;13.416;2023-12-14T03:01:59;5.90;96.70
80279;DHT22;70683;52.492;13.416;2023-12-14T03:04:26;5.90;96.50
80279;DHT22;70683;52.492;13.416;2023-12-14T03:06:53;5.80;96.20
80279;DHT22;70683;52.492;13.416;2023-12-14T03:09:20;5.70;96.30
80279;DHT22;70683;52.492;13.416;2023-12-14T03:11:47;5.70;96.50
80279;DHT22;70683;52.492;13.416;2023-12-14T03:14:13;5.60;96.60
80279;DHT22;70683;52.492;13.416;2023-12-14T03:16:40;5.70;96.90
80279;DHT22;70683;52.492;13.416;2023-12-14T03:19:07;5.70;96.90
80279;DHT22;70683;52.492;13.416;2023-12-14T03:21:33;5.60;97.00
80279;DHT22;70683;52.492;13.416;2023-12-14T03:24:00;5.70;96.90
80279;DHT22;70683;52.492;13.416;2023-12-14T03:26:28;5.70;97.00
80279;DHT22;70683;52.492;13.416;2023-12-14T03:28:55;5.70;97.00
80279;DHT22;70683;52.492;13.416;2023-12-14T03:31:21;5.80;96.90
80279;DHT22;70683;52.492;13.416;2023-12-14T03:33:48;5.90;96.90
80279;DHT22;70683;52.492;13.416;2023-12-14T03:36:14;5.90;96.80
80279;DHT22;70683;52.492;13.416;2023-12-14T03:38:41;5.90;96.40
80279;DHT22;70683;52.492;13.416;2023-12-14T03:41:08;5.90;96.30
80279;DHT22;70683;52.492;13.416;2023-12-14T03:43:34;5.90;96.40
80279;DHT22;70683;52.492;13.416;2023-12-14T03:46:01;5.80;96.10
80279;DHT22;70683;52.492;13.416;2023-12-14T03:48:28;5.80;96.50
80279;DHT22;70683;52.492;13.416;2023-12-14T03:50:56;5.80;96.60
80279;DHT22;70683;52.492;13.416;2023-12-14T03:53:22;5.90;96.50
80279;DHT22;70683;52.492;13.416;2023-12-14T03:55:49;5.90;96.50
80279;DHT22;70683;52.492;13.416;2023-12-14T03:58:15;5.90;96.60
80279;DHT22;70683;52.492;13.416;2023-12-14T04:00:42;5.90;96.60
80279;DHT22;70683;52.492;13.416;2023-12-14T04:03:09;5.90;96.50
80279;DHT22;70683;52.492;13.416;2023-12-14T04:05:35;6.00;96.50
80279;DHT22;70683;52.492;13.416;2023-12-14T04:08:02;6.00;96.40
80279;DHT22;70683;52.492;13.416;2023-12-14T04:10:29;6.00;96.40
80279;DHT22;70683;52.492;13.416;2023-12-14T04:12:55;6.00;96.50
80279;DHT22;70683;52.492;13.416;2023-12-14T04:15:22;6.00;96.40
80279;DHT22;70683;52.492;13.416;2023-12-14T04:17:51;6.00;96.30
80279;DHT22;70683;52.492;13.416;2023-12-14T04:20:17;6.00;96.30
80279;DHT22;70683;52.492;13.416;2023-12-14T04:22:44;6.00;96.20
80279;DHT22;70683;52.492;13.416;2023-12-14T04:25:11;6.00;96.10
80279;DHT22;70683;52.492;13.416;2023-12-14T04:27:38;6.10;96.10
80279;DHT22;70683;52.492;13.416;2023-12-14T04:30:05;6.00;96.10
80279;DHT22;70683;52.492;13.416;2023-12-14T04:32:34;6.00;96.10
80279;DHT22;70683;52.492;13.416;2023-12-14T04:35:00;6.00;96.10
80279;DHT22;70683;52.492;13.416;2023-12-14T04:37:27;5.90;96.10
80279;DHT22;70683;52.492;13.416;2023-12-14T04:39:54;6.00;96.20
80279;DHT22;70683;52.492;13.416;2023-12-14T04:42:21;6.00;96.30
80279;DHT22;70683;52.492;13.416;2023-12-14T04:44:48;6.00;96.10
80279;DHT22;70683;52.492;13.416;2023-12-14T04:47:14;5.90;95.80
80279;DHT22;70683;52.492;13.416;2023-12-14T04:49:41;5.80;96.20
80279;DHT22;70683;52.492;13.416;2023-12-14T04:52:08;5.80;96.40
80279;DHT22;70683;52.492;13.416;2023-12-14T04:54:34;5.80;96.50
80279;DHT22;70683;52.492;13.416;2023-12-14T04:57:04;5.80;96.60
80279;DHT22;70683;52.492;13.416;2023-12-14T04:59:31;5.90;96.50
80279;DHT22;70683;52.492;13.416;2023-12-14T05:01:57;5.90;96.40
80279;DHT22;70683;52.492;13.416;2023-12-14T05:04:24;5.90;96.70
80279;DHT22;70683;52.492;13.416;2023-12-14T05:06:51;5.90;96.50
80279;DHT22;70683;52.492;13.416;2023-12-14T05:09:18;6.00;96.50
80279;DHT22;70683;52.492;13.416;2023-12-14T05:11:46;6.00;96.10
80279;DHT22;70683;52.492;13.416;2023-12-14T05:14:12;6.00;96.20
80279;DHT22;70683;52.492;13.416;2023-12-14T05:16:39;6.00;96.30
80279;DHT22;70683;52.492;13.416;2023-12-14T05:19:06;6.00;96.30
80279;DHT22;70683;52.492;13.416;2023-12-14T05:21:33;6.00;96.10
80279;DHT22;70683;52.492;13.416;2023-12-14T05:23:59;6.00;96.20
80279;DHT22;70683;52.492;13.416;2023-12-14T05:26:26;6.00;96.30
80279;DHT22;70683;52.492;13.416;2023-12-14T05:28:53;6.00;96.70
80279;DHT22;70683;52.492;13.416;2023-12-14T05:31:19;6.10;96.40
80279;DHT22;70683;52.492;13.416;2023-12-14T05:33:46;6.10;96.30
80279;DHT22;70683;52.492;13.416;2023-12-14T05:36:13;5.70;96.10
80279;DHT22;70683;52.492;13.416;2023-12-14T05:38:40;5.80;96.80
80279;DHT22;70683;52.492;13.416;2023-12-14T05:41:07;5.70;96.60
80279;DHT22;70683;52.492;13.416;2023-12-14T05:43:34;5.80;96.80
80279;DHT22;70683;52.492;13.416;2023-12-14T05:46:02;5.80;96.90
80279;DHT22;70683;52.492;13.416;2023-12-14T05:48:29;5.80;96.70
80279;DHT22;70683;52.492;13.416;2023-12-14T05:50:56;5.90;96.60
80279;DHT22;70683;52.492;13.416;2023-12-14T05:53:23;5.90;96.60
80279;DHT22;70683;52.492;13.416;2023-12-14T05:55:50;6.00;96.60
80279;DHT22;70683;52.492;13.416;2023-12-14T05:58:17;6.00;96.40
80279;DHT22;70683;52.492;13.416;2023-12-14T06:00:44;6.00;96.50
80279;DHT22;70683;52.492;13.416;2023-12-14T06:03:11;6.00;96.40
80279;DHT22;70683;52.492;13.416;2023-12-14T06:05:37;6.00;96.40
80279;DHT22;70683;52.492;13.416;2023-12-14T06:08:04;6.00;96.30
80279;DHT22;70683;52.492;13.416;2023-12-14T06:10:31;6.10;96.40
80279;DHT22;70683;52.492;13.416;2023-12-14T06:12:58;6.10;96.30
80279;DHT22;70683;52.492;13.416;2023-12-14T06:15:25;6.10;96.30
80279;DHT22;70683;52.492;13.416;2023-12-14T06:17:51;6.10;96.30
80279;DHT22;70683;52.492;13.416;2023-12-14T06:20:18;6.10;96.30
80279;DHT22;70683;52.492;13.416;2023-12-14T06:22:45;6.10;96.30
80279;DHT22;70683;52.492;13.416;2023-12-14T06:25:13;6.10;96.10
80279;DHT22;70683;52.492;13.416;2023-12-14T06:27:39;6.10;95.90
80279;DHT22;70683;52.492;13.416;2023-12-14T06:30:08;6.10;95.80
80279;DHT22;70683;52.492;13.416;2023-12-14T06:32:37;6.10;95.80
80279;DHT22;70683;52.492;13.416;2023-12-14T06:35:04;6.10;96.00
80279;DHT22;70683;52.492;13.416;2023-12-14T06:37:32;6.10;95.70
80279;DHT22;70683;52.492;13.416;2023-12-14T06:39:59;6.10;95.70
80279;DHT22;70683;52.492;13.416;2023-12-14T06:42:27;6.10;95.90
80279;DHT22;70683;52.492;13.416;2023-12-14T06:44:56;6.10;95.90
80279;DHT22;70683;52.492;13.416;2023-12-14T06:47:22;6.20;95.80
80279;DHT22;70683;52.492;13.416;2023-12-14T06:49:49;6.20;95.70
80279;DHT22;70683;52.492;13.416;2023-12-14T06:52:16;6.10;95.30
80279;DHT22;70683;52.492;13.416;2023-12-14T06:54:42;6.20;95.30
80279;DHT22;70683;52.492;13.416;2023-12-14T06:57:09;6.20;95.50
80279;DHT22;70683;52.492;13.416;2023-12-14T06:59:36;6.20;95.70
80279;DHT22;70683;52.492;13.416;2023-12-14T07:02:03;6.10;95.60
80279;DHT22;70683;52.492;13.416;2023-12-14T07:04:29;6.20;95.80
80279;DHT22;70683;52.492;13.416;2023-12-14T07:06:56;6.10;95.40
80279;DHT22;70683;52.492;13.416;2023-12-14T07:09:24;6.10;95.60
80279;DHT22;70683;52.492;13.416;2023-12-14T07:11:52;6.20;95.70
80279;DHT22;70683;52.492;13.416;2023-12-14T07:14:20;6.20;95.50
80279;DHT22;70683;52.492;13.416;2023-12-14T07:16:46;6.10;95.30
80279;DHT22;70683;52.492;13.416;2023-12-14T07:19:13;6.10;95.30
80279;DHT22;70683;52.492;13.416;2023-12-14T07:21:39;6.10;95.10
80279;DHT22;70683;52.492;13.416;2023-12-14T07:24:06;6.10;95.50
80279;DHT22;70683;52.492;13.416;2023-12-14T07:26:33;6.00;95.30
80279;DHT22;70683;52.492;13.416;2023-12-14T07:28:59;6.10;95.40
80279;DHT22;70683;52.492;13.416;2023-12-14T07:31:26;6.10;95.30
80279;DHT22;70683;52.492;13.416;2023-12-14T07:33:55;6.00;95.40
80279;DHT22;70683;52.492;13.416;2023-12-14T07:36:22;6.10;95.60
80279;DHT22;70683;52.492;13.416;2023-12-14T07:38:49;6.10;95.50
80279;DHT22;70683;52.492;13.416;2023-12-14T07:41:16;6.10;95.60
80279;DHT22;70683;52.492;13.416;2023-12-14T07:43:43;6.20;95.70
80279;DHT22;70683;52.492;13.416;2023-12-14T07:46:09;6.30;95.60
80279;DHT22;70683;52.492;13.416;2023-12-14T07:48:36;6.30;95.20
80279;DHT22;70683;52.492;13.416;2023-12-14T07:51:03;6.30;95.30
80279;DHT22;70683;52.492;13.416;2023-12-14T07:53:30;6.20;94.40
80279;DHT22;70683;52.492;13.416;2023-12-14T07:55:56;6.20;94.70
80279;DHT22;70683;52.492;13.416;2023-12-14T07:58:24;6.20;95.00
80279;DHT22;70683;52.492;13.416;2023-12-14T08:00:52;6.20;95.00
80279;DHT22;70683;52.492;13.416;2023-12-14T08:03:18;6.20;95.30
80279;DHT22;70683;52.492;13.416;2023-12-14T08:05:46;6.20;94.90
80279;DHT22;70683;52.492;13.416;2023-12-14T08:08:12;6.20;94.30
80279;DHT22;70683;52.492;13.416;2023-12-14T08:10:39;6.10;94.60
80279;DHT22;70683;52.492;13.416;2023-12-14T08:13:06;6.10;94.80
80279;DHT22;70683;52.492;13.416;2023-12-14T08:15:32;6.10;94.60
80279;DHT22;70683;52.492;13.416;2023-12-14T08:17:59;6.20;94.80
80279;DHT22;70683;52.492;13.416;2023-12-14T08:20:26;6.30;94.80
80279;DHT22;70683;52.492;13.416;2023-12-14T08:22:52;6.30;94.50
80279;DHT22;70683;52.492;13.416;2023-12-14T08:25:19;6.30;94.70
80279;DHT22;70683;52.492;13.416;2023-12-14T08:27:46;6.30;94.80
80279;DHT22;70683;52.492;13.416;2023-12-14T08:30:13;6.40;94.90
80279;DHT22;70683;52.492;13.416;2023-12-14T08:32:40;6.50;94.40
80279;DHT22;70683;52.492;13.416;2023-12-14T08:35:07;6.40;94.10
80279;DHT22;70683;52.492;13.416;2023-12-14T08:37:35;6.40;94.10
80279;DHT22;70683;52.492;13.416;2023-12-14T08:40:04;6.40;93.60
80279;DHT22;70683;52.492;13.416;2023-12-14T08:42:31;6.40;93.80
80279;DHT22;70683;52.492;13.416;2023-12-14T08:44:58;6.40;94.10
80279;DHT22;70683;52.492;13.416;2023-12-14T08:47:24;6.40;93.90
80279;DHT22;70683;52.492;13.416;2023-12-14T08:49:51;6.40;93.70
80279;DHT22;70683;52.492;13.416;2023-12-14T08:52:18;6.40;94.00
80279;DHT22;70683;52.492;13.416;2023-12-14T08:54:45;6.40;94.00
80279;DHT22;70683;52.492;13.416;2023-12-14T08:57:12;6.30;93.70
80279;DHT22;70683;52.492;13.416;2023-12-14T08:59:38;6.30;93.80
80279;DHT22;70683;52.492;13.416;2023-12-14T09:02:05;6.20;93.80
80279;DHT22;70683;52.492;13.416;2023-12-14T09:04:32;6.30;94.20
80279;DHT22;70683;52.492;13.416;2023-12-14T09:07:00;6.30;94.30
80279;DHT22;70683;52.492;13.416;2023-12-14T09:09:27;6.40;94.20
80279;DHT22;70683;52.492;13.416;2023-12-14T09:11:54;6.40;94.20
80279;DHT22;70683;52.492;13.416;2023-12-14T09:14:21;6.50;94.20
80279;DHT22;70683;52.492;13.416;2023-12-14T09:16:47;6.50;94.10
80279;DHT22;70683;52.492;13.416;2023-12-14T09:19:14;6.50;93.90
80279;DHT22;70683;52.492;13.416;2023-12-14T09:21:40;6.60;93.80
80279;DHT22;70683;52.492;13.416;2023-12-14T09:24:07;6.60;93.90
80279;DHT22;70683;52.492;13.416;2023-12-14T09:26:35;6.60;93.60
80279;DHT22;70683;52.492;13.416;2023-12-14T09:29:02;6.60;93.60
80279;DHT22;70683;52.492;13.416;2023-12-14T09:31:29;6.70;93.50
80279;DHT22;70683;52.492;13.416;2023-12-14T09:33:55;6.70;93.40
80279;DHT22;70683;52.492;13.416;2023-12-14T09:36:22;6.70;93.50
80279;DHT22;70683;52.492;13.416;2023-12-14T09:38:50;6.70;93.40
80279;DHT22;70683;52.492;13.416;2023-12-14T09:41:17;6.70;93.20
80279;DHT22;70683;52.492;13.416;2023-12-14T09:43:45;6.70;93.30
80279;DHT22;70683;52.492;13.416;2023-12-14T09:46:13;6.70;93.40
80279;DHT22;70683;52.492;13.416;2023-12-14T09:48:41;6.70;93.10
80279;DHT22;70683;52.492;13.416;2023-12-14T09:51:09;6.70;93.10
80279;DHT22;70683;52.492;13.416;2023-12-14T09:53:36;6.70;93.50
80279;DHT22;70683;52.492;13.416;2023-12-14T09:56:03;6.70;93.50
80279;DHT22;70683;52.492;13.416;2023-12-14T09:58:32;6.70;93.70
80279;DHT22;70683;52.492;13.416;2023-12-14T10:01:00;6.70;93.40
80279;DHT22;70683;52.492;13.416;2023-12-14T10:03:30;6.80;93.20
80279;DHT22;70683;52.492;13.416;2023-12-14T10:05:59;6.80;93.20
80279;DHT22;70683;52.492;13.416;2023-12-14T10:08:27;6.70;93.00
80279;DHT22;70683;52.492;13.416;2023-12-14T10:10:55;6.70;93.20
80279;DHT22;70683;52.492;13.416;2023-12-14T10:13:39;6.80;93.30
80279;DHT22;70683;52.492;13.416;2023-12-14T10:16:06;6.70;92.90
80279;DHT22;70683;52.492;13.416;2023-12-14T10:18:33;6.70;93.30
80279;DHT22;70683;52.492;13.416;2023-12-14T10:21:01;6.80;93.20
80279;DHT22;70683;52.492;13.416;2023-12-14T10:23:28;6.70;93.10
80279;DHT22;70683;52.492;13.416;2023-12-14T10:25:55;6.70;92.90
80279;DHT22;70683;52.492;13.416;2023-12-14T10:28:22;6.80;93.20
80279;DHT22;70683;52.492;13.416;2023-12-14T10:30:50;6.80;93.30
80279;DHT22;70683;52.492;13.416;2023-12-14T10:33:17;6.90;92.90
80279;DHT22;70683;52.492;13.416;2023-12-14T10:35:43;6.80;92.40
80279;DHT22;70683;52.492;13.416;2023-12-14T10:38:12;6.80;92.50
80279;DHT22;70683;52.492;13.416;2023-12-14T10:40:40;6.80;92.50
80279;DHT22;70683;52.492;13.416;2023-12-14T10:43:10;6.80;92.60
80279;DHT22;70683;52.492;13.416;2023-12-14T10:45:39;6.80;92.20
80279;DHT22;70683;52.492;13.416;2023-12-14T10:48:07;6.80;92.40
80279;DHT22;70683;52.492;13.416;2023-12-14T10:50:35;6.80;92.60
80279;DHT22;70683;52.492;13.416;2023-12-14T10:53:03;6.90;92.50
80279;DHT22;70683;52.492;13.416;2023-12-14T10:55:37;6.90;92.20
80279;DHT22;70683;52.492;13.416;2023-12-14T10:58:04;6.80;92.00
80279;DHT22;70683;52.492;13.416;2023-12-14T11:00:31;6.80;92.50
80279;DHT22;70683;52.492;13.416;2023-12-14T11:02:59;6.80;92.20
80279;DHT22;70683;52.492;13.416;2023-12-14T11:05:27;6.70;91.90
80279;DHT22;70683;52.492;13.416;2023-12-14T11:08:00;6.70;92.10
80279;DHT22;70683;52.492;13.416;2023-12-14T11:10:53;6.70;92.40
80279;DHT22;70683;52.492;13.416;2023-12-14T11:13:24;6.70;91.90
80279;DHT22;70683;52.492;13.416;2023-12-14T11:15:52;6.70;92.10
80279;DHT22;70683;52.492;13.416;2023-12-14T11:18:23;6.80;92.30
80279;DHT22;70683;52.492;13.416;2023-12-14T11:20:53;6.80;91.50
80279;DHT22;70683;52.492;13.416;2023-12-14T11:23:33;6.80;91.90
80279;DHT22;70683;52.492;13.416;2023-12-14T11:26:04;6.80;91.50
80279;DHT22;70683;52.492;13.416;2023-12-14T11:28:33;6.80;91.50
80279;DHT22;70683;52.492;13.416;2023-12-14T11:31:01;6.80;91.60
80279;DHT22;70683;52.492;13.416;2023-12-14T11:33:28;6.80;92.20
80279;DHT22;70683;52.492;13.416;2023-12-14T11:35:55;6.80;91.50
80279;DHT22;70683;52.492;13.416;2023-12-14T11:38:23;6.80;91.70
80279;DHT22;70683;52.492;13.416;2023-12-14T11:40:50;6.80;92.00
80279;DHT22;70683;52.492;13.416;2023-12-14T11:43:17;6.80;91.70
80279;DHT22;70683;52.492;13.416;2023-12-14T11:45:46;6.80;91.70
80279;DHT22;70683;52.492;13.416;2023-12-14T11:48:13;6.80;92.00
80279;DHT22;70683;52.492;13.416;2023-12-14T11:50:41;6.90;91.60
80279;DHT22;70683;52.492;13.416;2023-12-14T11:53:09;6.90;91.80
80279;DHT22;70683;52.492;13.416;2023-12-14T11:55:37;7.00;91.90
80279;DHT22;70683;52.492;13.416;2023-12-14T11:58:05;7.00;91.80
80279;DHT22;70683;52.492;13.416;2023-12-14T12:00:33;7.00;91.40
80279;DHT22;70683;52.492;13.416;2023-12-14T12:03:12;7.00;91.10
80279;DHT22;70683;52.492;13.416;2023-12-14T12:05:41;6.90;91.20
80279;DHT22;70683;52.492;13.416;2023-12-14T12:08:09;6.90;91.50
80279;DHT22;70683;52.492;13.416;2023-12-14T12:10:37;6.80;91.70
80279;DHT22;70683;52.492;13.416;2023-12-14T12:13:06;6.90;92.00
80279;DHT22;70683;52.492;13.416;2023-12-14T12:15:34;6.90;91.60
80279;DHT22;70683;52.492;13.416;2023-12-14T12:18:06;6.90;91.60
80279;DHT22;70683;52.492;13.416;2023-12-14T12:20:33;6.90;91.60
80279;DHT22;70683;52.492;13.416;2023-12-14T12:23:00;6.90;91.80
80279;DHT22;70683;52.492;13.416;2023-12-14T12:25:27;6.90;91.60
80279;DHT22;70683;52.492;13.416;2023-12-14T12:28:03;7.00;91.50
80279;DHT22;70683;52.492;13.416;2023-12-14T12:30:30;7.00;91.30
80279;DHT22;70683;52.492;13.416;2023-12-14T12:38:39;7.10;91.60
80279;DHT22;70683;52.492;13.416;2023-12-14T12:41:06;7.20;91.10
80279;DHT22;70683;52.492;13.416;2023-12-14T12:43:32;7.10;91.00
80279;DHT22;70683;52.492;13.416;2023-12-14T12:45:59;7.10;91.10
80279;DHT22;70683;52.492;13.416;2023-12-14T12:48:26;7.00;90.90
80279;DHT22;70683;52.492;13.416;2023-12-14T12:50:53;7.00;91.20
80279;DHT22;70683;52.492;13.416;2023-12-14T12:53:20;7.00;91.00
80279;DHT22;70683;52.492;13.416;2023-12-14T12:55:46;7.10;91.20
80279;DHT22;70683;52.492;13.416;2023-12-14T12:58:14;7.10;91.40
80279;DHT22;70683;52.492;13.416;2023-12-14T13:00:40;7.10;91.30
80279;DHT22;70683;52.492;13.416;2023-12-14T13:03:07;7.10;91.20
80279;DHT22;70683;52.492;13.416;2023-12-14T13:05:34;7.10;91.20
80279;DHT22;70683;52.492;13.416;2023-12-14T13:08:00;7.10;91.20
80279;DHT22;70683;52.492;13.416;2023-12-14T13:10:27;7.10;91.10
80279;DHT22;70683;52.492;13.416;2023-12-14T13:12:54;7.10;91.00
80279;DHT22;70683;52.492;13.416;2023-12-14T13:15:22;7.00;90.90
80279;DHT22;70683;52.492;13.416;2023-12-14T13:17:51;7.10;91.20
80279;DHT22;70683;52.492;13.416;2023-12-14T13:20:18;7.10;91.20
80279;DHT22;70683;52.492;13.416;2023-12-14T13:22:45;7.00;90.80
80279;DHT22;70683;52.492;13.416;2023-12-14T13:25:12;7.00;91.10
80279;DHT22;70683;52.492;13.416;2023-12-14T13:27:40;7.00;91.10
80279;DHT22;70683;52.492;13.416;2023-12-14T13:30:07;6.90;91.10
80279;DHT22;70683;52.492;13.416;2023-12-14T13:32:35;7.00;91.30
80279;DHT22;70683;52.492;13.416;2023-12-14T13:35:01;7.10;91.20
80279;DHT22;70683;52.492;13.416;2023-12-14T13:37:28;7.10;91.00
80279;DHT22;70683;52.492;13.416;2023-12-14T13:39:55;7.10;90.90
80279;DHT22;70683;52.492;13.416;2023-12-14T13:42:21;7.00;90.90
80279;DHT22;70683;52.492;13.416;2023-12-14T13:44:48;6.90;91.20
80279;DHT22;70683;52.492;13.416;2023-12-14T13:47:15;6.90;91.30
80279;DHT22;70683;52.492;13.416;2023-12-14T13:49:41;7.00;91.50
80279;DHT22;70683;52.492;13.416;2023-12-14T13:52:08;7.00;91.40
80279;DHT22;70683;52.492;13.416;2023-12-14T13:54:35;7.00;91.40
80279;DHT22;70683;52.492;13.416;2023-12-14T13:57:03;7.00;91.00
80279;DHT22;70683;52.492;13.416;2023-12-14T13:59:29;7.00;91.20
80279;DHT22;70683;52.492;13.416;2023-12-14T14:01:56;7.00;90.80
80279;DHT22;70683;52.492;13.416;2023-12-14T14:04:23;6.90;91.10
80279;DHT22;70683;52.492;13.416;2023-12-14T14:06:49;6.90;91.20
80279;DHT22;70683;52.492;13.416;2023-12-14T14:09:16;6.90;91.20
80279;DHT22;70683;52.492;13.416;2023-12-14T14:11:42;6.90;91.10
80279;DHT22;70683;52.492;13.416;2023-12-14T14:14:11;6.90;91.30
80279;DHT22;70683;52.492;13.416;2023-12-14T14:16:38;6.80;91.10
80279;DHT22;70683;52.492;13.416;2023-12-14T14:19:05;6.80;91.20
80279;DHT22;70683;52.492;13.416;2023-12-14T14:21:32;6.80;91.40
80279;DHT22;70683;52.492;13.416;2023-12-14T14:23:58;6.80;91.40
80279;DHT22;70683;52.492;13.416;2023-12-14T14:26:25;6.80;91.40
80279;DHT22;70683;52.492;13.416;2023-12-14T14:28:51;6.90;91.30
80279;DHT22;70683;52.492;13.416;2023-12-14T14:31:20;6.80;90.90
80279;DHT22;70683;52.492;13.416;2023-12-14T14:33:47;6.70;91.30
80279;DHT22;70683;52.492;13.416;2023-12-14T14:36:14;6.70;91.30
80279;DHT22;70683;52.492;13.416;2023-12-14T14:38:42;6.70;91.20
80279;DHT22;70683;52.492;13.416;2023-12-14T14:41:09;6.70;91.10
80279;DHT22;70683;52.492;13.416;2023-12-14T14:43:35;6.80;91.30
80279;DHT22;70683;52.492;13.416;2023-12-14T14:46:02;6.70;91.40
80279;DHT22;70683;52.492;13.416;2023-12-14T14:48:30;6.60;91.50
80279;DHT22;70683;52.492;13.416;2023-12-14T14:50:57;6.70;91.80
80279;DHT22;70683;52.492;13.416;2023-12-14T14:53:23;6.70;91.50
80279;DHT22;70683;52.492;13.416;2023-12-14T14:55:50;6.60;91.40
80279;DHT22;70683;52.492;13.416;2023-12-14T14:58:19;6.60;91.60
80279;DHT22;70683;52.492;13.416;2023-12-14T15:00:45;6.60;91.50
80279;DHT22;70683;52.492;13.416;2023-12-14T15:03:14;6.50;91.90
80279;DHT22;70683;52.492;13.416;2023-12-14T15:05:41;6.50;91.50
80279;DHT22;70683;52.492;13.416;2023-12-14T15:08:08;6.50;91.90
80279;DHT22;70683;52.492;13.416;2023-12-14T15:10:34;6.60;91.90
80279;DHT22;70683;52.492;13.416;2023-12-14T15:13:01;6.60;91.70
80279;DHT22;70683;52.492;13.416;2023-12-14T15:15:28;6.60;91.50
80279;DHT22;70683;52.492;13.416;2023-12-14T15:17:54;6.70;91.40
80279;DHT22;70683;52.492;13.416;2023-12-14T15:20:21;6.60;90.90
80279;DHT22;70683;52.492;13.416;2023-12-14T15:22:48;6.60;91.10
80279;DHT22;70683;52.492;13.416;2023-12-14T15:25:15;6.60;91.10
80279;DHT22;70683;52.492;13.416;2023-12-14T15:27:43;6.50;91.10
80279;DHT22;70683;52.492;13.416;2023-12-14T15:30:10;6.60;90.80
80279;DHT22;70683;52.492;13.416;2023-12-14T15:32:37;6.50;90.70
80279;DHT22;70683;52.492;13.416;2023-12-14T15:35:05;6.50;91.00
80279;DHT22;70683;52.492;13.416;2023-12-14T15:37:31;6.60;91.10